sensor_id;sensor_type;location;lat;lon;timestamp;P1;durP1;ratioP1;P2;durP2;ratioP2
6354;SDS011;3210;48.708;9.030;2022-08-19T00:00:48;15.37;;;13.40;;
6354;SDS011;3210;48.708;9.030;2022-08-19T00:03:16;16.60;;;14.00;;
6354;SDS011;3210;48.708;9.030;2022-08-19T00:05:43;22.13;;;15.90;;
6354;SDS011;3210;48.708;9.030;2022-08-19T00:08:10;18.00;;;14.40;;
6354;SDS011;3210;48.708;9.030;2022-08-19T00:10:37;19.03;;;14.33;;
6354;SDS011;3210;48.708;9.030;2022-08-19T00:13:04;20.37;;;15.60;;
6354;SDS011;3210;48.708;9.030;2022-08-19T00:15:31;17.57;;;14.10;;
6354;SDS011;3210;48.708;9.030;2022-08-19T00:17:57;19.17;;;14.23;;
6354;SDS011;3210;48.708;9.030;2022-08-19T00:20:26;18.20;;;14.00;;
6354;SDS011;3210;48.708;9.030;2022-08-19T00:22:53;17.97;;;14.70;;
6354;SDS011;3210;48.708;9.030;2022-08-19T00:25:20;20.47;;;15.60;;
6354;SDS011;3210;48.708;9.030;2022-08-19T00:27:48;23.73;;;14.37;;
6354;SDS011;3210;48.708;9.030;2022-08-19T00:30:16;18.03;;;13.80;;
6354;SDS011;3210;48.708;9.030;2022-08-19T00:32:43;17.60;;;14.80;;
6354;SDS011;3210;48.708;9.030;2022-08-19T00:35:10;17.70;;;14.37;;
6354;SDS011;3210;48.708;9.030;2022-08-19T00:37:38;18.57;;;14.57;;
6354;SDS011;3210;48.708;9.030;2022-08-19T00:40:08;17.10;;;14.77;;
6354;SDS011;3210;48.708;9.030;2022-08-19T00:42:37;22.50;;;15.73;;
6354;SDS011;3210;48.708;9.030;2022-08-19T00:45:05;21.03;;;16.37;;
6354;SDS011;3210;48.708;9.030;2022-08-19T00:47:36;21.10;;;16.73;;
6354;SDS011;3210;48.708;9.030;2022-08-19T00:50:03;21.77;;;16.43;;
6354;SDS011;3210;48.708;9.030;2022-08-19T00:52:33;20.20;;;16.07;;
6354;SDS011;3210;48.708;9.030;2022-08-19T00:55:06;20.43;;;16.00;;
6354;SDS011;3210;48.708;9.030;2022-08-19T00:57:37;22.50;;;16.17;;
6354;SDS011;3210;48.708;9.030;2022-08-19T01:00:07;20.80;;;15.77;;
6354;SDS011;3210;48.708;9.030;2022-08-19T01:02:36;19.07;;;14.70;;
6354;SDS011;3210;48.708;9.030;2022-08-19T01:05:04;19.47;;;15.67;;
6354;SDS011;3210;48.708;9.030;2022-08-19T01:07:33;30.00;;;15.40;;
6354;SDS011;3210;48.708;9.030;2022-08-19T01:10:01;23.80;;;17.83;;
6354;SDS011;3210;48.708;9.030;2022-08-19T01:12:29;20.03;;;15.63;;
6354;SDS011;3210;48.708;9.030;2022-08-19T01:14:56;20.90;;;15.40;;
6354;SDS011;3210;48.708;9.030;2022-08-19T01:17:24;22.97;;;17.03;;
6354;SDS011;3210;48.708;9.030;2022-08-19T01:19:51;24.23;;;16.67;;
6354;SDS011;3210;48.708;9.030;2022-08-19T01:22:19;22.10;;;16.50;;
6354;SDS011;3210;48.708;9.030;2022-08-19T01:24:56;21.43;;;16.80;;
6354;SDS011;3210;48.708;9.030;2022-08-19T01:27:23;27.00;;;17.80;;
6354;SDS011;3210;48.708;9.030;2022-08-19T01:29:50;24.73;;;17.50;;
6354;SDS011;3210;48.708;9.030;2022-08-19T01:32:17;38.73;;;19.37;;
6354;SDS011;3210;48.708;9.030;2022-08-19T01:34:44;26.27;;;18.57;;
6354;SDS011;3210;48.708;9.030;2022-08-19T01:37:12;25.90;;;17.70;;
6354;SDS011;3210;48.708;9.030;2022-08-19T01:39:41;21.77;;;16.00;;
6354;SDS011;3210;48.708;9.030;2022-08-19T01:42:09;26.53;;;18.10;;
6354;SDS011;3210;48.708;9.030;2022-08-19T01:44:37;23.43;;;16.93;;
6354;SDS011;3210;48.708;9.030;2022-08-19T01:47:04;25.90;;;18.37;;
6354;SDS011;3210;48.708;9.030;2022-08-19T01:49:31;30.80;;;19.83;;
6354;SDS011;3210;48.708;9.030;2022-08-19T01:51:58;27.83;;;18.73;;
6354;SDS011;3210;48.708;9.030;2022-08-19T01:54:26;23.07;;;18.53;;
6354;SDS011;3210;48.708;9.030;2022-08-19T01:56:55;33.30;;;19.70;;
6354;SDS011;3210;48.708;9.030;2022-08-19T01:59:25;26.83;;;19.00;;
6354;SDS011;3210;48.708;9.030;2022-08-19T02:01:52;27.90;;;19.80;;
6354;SDS011;3210;48.708;9.030;2022-08-19T02:04:19;25.13;;;18.53;;
6354;SDS011;3210;48.708;9.030;2022-08-19T02:06:46;23.67;;;19.37;;
6354;SDS011;3210;48.708;9.030;2022-08-19T02:09:13;28.27;;;20.80;;
6354;SDS011;3210;48.708;9.030;2022-08-19T02:11:41;27.40;;;20.00;;
6354;SDS011;3210;48.708;9.030;2022-08-19T02:14:09;23.70;;;19.47;;
6354;SDS011;3210;48.708;9.030;2022-08-19T02:16:36;26.73;;;20.97;;
6354;SDS011;3210;48.708;9.030;2022-08-19T02:19:05;28.90;;;21.67;;
6354;SDS011;3210;48.708;9.030;2022-08-19T02:21:32;27.17;;;19.83;;
6354;SDS011;3210;48.708;9.030;2022-08-19T02:23:58;27.53;;;18.87;;
6354;SDS011;3210;48.708;9.030;2022-08-19T02:26:25;28.60;;;20.50;;
6354;SDS011;3210;48.708;9.030;2022-08-19T02:28:53;29.27;;;20.00;;
6354;SDS011;3210;48.708;9.030;2022-08-19T02:31:23;28.00;;;21.00;;
6354;SDS011;3210;48.708;9.030;2022-08-19T02:33:52;31.37;;;20.20;;
6354;SDS011;3210;48.708;9.030;2022-08-19T02:36:20;26.87;;;19.60;;
6354;SDS011;3210;48.708;9.030;2022-08-19T02:38:47;24.93;;;19.43;;
6354;SDS011;3210;48.708;9.030;2022-08-19T02:41:15;25.80;;;18.97;;
6354;SDS011;3210;48.708;9.030;2022-08-19T02:43:44;23.77;;;18.40;;
6354;SDS011;3210;48.708;9.030;2022-08-19T02:46:12;25.00;;;19.87;;
6354;SDS011;3210;48.708;9.030;2022-08-19T02:48:42;27.33;;;19.23;;
6354;SDS011;3210;48.708;9.030;2022-08-19T02:51:09;23.57;;;18.60;;
6354;SDS011;3210;48.708;9.030;2022-08-19T02:53:42;29.77;;;22.40;;
6354;SDS011;3210;48.708;9.030;2022-08-19T02:56:09;27.27;;;19.47;;
6354;SDS011;3210;48.708;9.030;2022-08-19T02:58:36;28.37;;;19.63;;
6354;SDS011;3210;48.708;9.030;2022-08-19T03:01:03;26.50;;;19.80;;
6354;SDS011;3210;48.708;9.030;2022-08-19T03:03:29;31.83;;;22.20;;
6354;SDS011;3210;48.708;9.030;2022-08-19T03:06:05;27.17;;;20.60;;
6354;SDS011;3210;48.708;9.030;2022-08-19T03:08:33;29.23;;;19.77;;
6354;SDS011;3210;48.708;9.030;2022-08-19T03:11:01;29.47;;;21.63;;
6354;SDS011;3210;48.708;9.030;2022-08-19T03:13:28;28.90;;;20.60;;
6354;SDS011;3210;48.708;9.030;2022-08-19T03:15:55;35.53;;;22.10;;
6354;SDS011;3210;48.708;9.030;2022-08-19T03:18:22;28.57;;;21.30;;
6354;SDS011;3210;48.708;9.030;2022-08-19T03:20:49;30.00;;;20.47;;
6354;SDS011;3210;48.708;9.030;2022-08-19T03:23:20;32.23;;;23.60;;
6354;SDS011;3210;48.708;9.030;2022-08-19T03:25:49;28.43;;;20.40;;
6354;SDS011;3210;48.708;9.030;2022-08-19T03:28:18;32.33;;;22.47;;
6354;SDS011;3210;48.708;9.030;2022-08-19T03:30:54;30.23;;;20.63;;
6354;SDS011;3210;48.708;9.030;2022-08-19T03:33:23;29.40;;;21.00;;
6354;SDS011;3210;48.708;9.030;2022-08-19T03:36:04;35.50;;;23.50;;
6354;SDS011;3210;48.708;9.030;2022-08-19T03:38:35;32.23;;;21.70;;
6354;SDS011;3210;48.708;9.030;2022-08-19T03:41:04;29.10;;;21.87;;
6354;SDS011;3210;48.708;9.030;2022-08-19T03:43:33;31.40;;;23.17;;
6354;SDS011;3210;48.708;9.030;2022-08-19T03:46:02;27.60;;;21.30;;
6354;SDS011;3210;48.708;9.030;2022-08-19T03:48:31;31.60;;;22.90;;
6354;SDS011;3210;48.708;9.030;2022-08-19T03:50:58;30.03;;;22.70;;
6354;SDS011;3210;48.708;9.030;2022-08-19T03:53:26;33.60;;;24.10;;
6354;SDS011;3210;48.708;9.030;2022-08-19T03:55:54;31.63;;;22.53;;
6354;SDS011;3210;48.708;9.030;2022-08-19T03:58:23;30.00;;;24.10;;
6354;SDS011;3210;48.708;9.030;2022-08-19T04:00:50;31.30;;;23.73;;
6354;SDS011;3210;48.708;9.030;2022-08-19T04:03:16;36.60;;;24.00;;
6354;SDS011;3210;48.708;9.030;2022-08-19T04:05:45;32.03;;;22.60;;
6354;SDS011;3210;48.708;9.030;2022-08-19T04:08:12;28.03;;;21.23;;
6354;SDS011;3210;48.708;9.030;2022-08-19T04:10:45;32.10;;;21.37;;
6354;SDS011;3210;48.708;9.030;2022-08-19T04:13:14;32.47;;;24.37;;
6354;SDS011;3210;48.708;9.030;2022-08-19T04:15:42;36.30;;;23.60;;
6354;SDS011;3210;48.708;9.030;2022-08-19T04:18:12;39.43;;;24.90;;
6354;SDS011;3210;48.708;9.030;2022-08-19T04:20:40;26.67;;;22.30;;
6354;SDS011;3210;48.708;9.030;2022-08-19T04:23:08;33.70;;;24.10;;
6354;SDS011;3210;48.708;9.030;2022-08-19T04:25:35;29.27;;;22.90;;
6354;SDS011;3210;48.708;9.030;2022-08-19T04:28:04;36.07;;;24.87;;
6354;SDS011;3210;48.708;9.030;2022-08-19T04:30:36;32.70;;;25.53;;
6354;SDS011;3210;48.708;9.030;2022-08-19T04:33:04;34.53;;;22.17;;
6354;SDS011;3210;48.708;9.030;2022-08-19T04:35:34;33.27;;;24.53;;
6354;SDS011;3210;48.708;9.030;2022-08-19T04:38:03;33.90;;;24.97;;
6354;SDS011;3210;48.708;9.030;2022-08-19T04:40:29;30.40;;;22.77;;
6354;SDS011;3210;48.708;9.030;2022-08-19T04:43:14;33.33;;;24.33;;
6354;SDS011;3210;48.708;9.030;2022-08-19T04:45:42;33.77;;;25.30;;
6354;SDS011;3210;48.708;9.030;2022-08-19T04:48:10;36.00;;;26.00;;
6354;SDS011;3210;48.708;9.030;2022-08-19T04:50:39;34.60;;;25.03;;
6354;SDS011;3210;48.708;9.030;2022-08-19T04:53:07;30.83;;;24.07;;
6354;SDS011;3210;48.708;9.030;2022-08-19T04:55:34;34.47;;;26.47;;
6354;SDS011;3210;48.708;9.030;2022-08-19T04:58:04;34.47;;;24.77;;
6354;SDS011;3210;48.708;9.030;2022-08-19T05:00:31;36.30;;;26.00;;
6354;SDS011;3210;48.708;9.030;2022-08-19T05:02:59;36.63;;;25.47;;
6354;SDS011;3210;48.708;9.030;2022-08-19T05:05:27;35.60;;;26.87;;
6354;SDS011;3210;48.708;9.030;2022-08-19T05:07:53;33.90;;;25.87;;
6354;SDS011;3210;48.708;9.030;2022-08-19T05:10:20;35.50;;;26.07;;
6354;SDS011;3210;48.708;9.030;2022-08-19T05:12:47;35.97;;;26.00;;
6354;SDS011;3210;48.708;9.030;2022-08-19T05:15:14;35.70;;;25.70;;
6354;SDS011;3210;48.708;9.030;2022-08-19T05:17:41;34.40;;;24.63;;
6354;SDS011;3210;48.708;9.030;2022-08-19T05:20:29;40.00;;;25.20;;
6354;SDS011;3210;48.708;9.030;2022-08-19T05:23:14;33.83;;;23.63;;
6354;SDS011;3210;48.708;9.030;2022-08-19T05:25:42;40.30;;;25.87;;
6354;SDS011;3210;48.708;9.030;2022-08-19T05:28:09;34.23;;;24.40;;
6354;SDS011;3210;48.708;9.030;2022-08-19T05:30:36;44.23;;;27.73;;
6354;SDS011;3210;48.708;9.030;2022-08-19T05:33:03;37.40;;;26.87;;
6354;SDS011;3210;48.708;9.030;2022-08-19T05:35:31;41.77;;;25.93;;
6354;SDS011;3210;48.708;9.030;2022-08-19T05:38:00;33.23;;;25.77;;
6354;SDS011;3210;48.708;9.030;2022-08-19T05:40:27;28.23;;;23.57;;
6354;SDS011;3210;48.708;9.030;2022-08-19T05:42:54;41.63;;;28.80;;
6354;SDS011;3210;48.708;9.030;2022-08-19T05:45:21;40.73;;;26.53;;
6354;SDS011;3210;48.708;9.030;2022-08-19T05:47:48;36.40;;;25.57;;
6354;SDS011;3210;48.708;9.030;2022-08-19T05:50:14;35.93;;;24.67;;
6354;SDS011;3210;48.708;9.030;2022-08-19T05:52:43;41.20;;;27.67;;
6354;SDS011;3210;48.708;9.030;2022-08-19T05:55:11;37.07;;;24.90;;
6354;SDS011;3210;48.708;9.030;2022-08-19T05:57:38;33.90;;;25.83;;
6354;SDS011;3210;48.708;9.030;2022-08-19T06:00:06;29.77;;;23.83;;
6354;SDS011;3210;48.708;9.030;2022-08-19T06:02:35;33.20;;;23.80;;
6354;SDS011;3210;48.708;9.030;2022-08-19T06:05:02;32.03;;;23.97;;
6354;SDS011;3210;48.708;9.030;2022-08-19T06:07:31;36.20;;;26.40;;
6354;SDS011;3210;48.708;9.030;2022-08-19T06:09:59;31.17;;;24.50;;
6354;SDS011;3210;48.708;9.030;2022-08-19T06:12:26;33.40;;;25.83;;
6354;SDS011;3210;48.708;9.030;2022-08-19T06:14:56;45.13;;;24.40;;
6354;SDS011;3210;48.708;9.030;2022-08-19T06:17:23;31.70;;;23.50;;
6354;SDS011;3210;48.708;9.030;2022-08-19T06:19:51;34.50;;;25.50;;
6354;SDS011;3210;48.708;9.030;2022-08-19T06:22:18;34.60;;;25.60;;
6354;SDS011;3210;48.708;9.030;2022-08-19T06:24:44;35.40;;;25.57;;
6354;SDS011;3210;48.708;9.030;2022-08-19T06:27:13;35.73;;;26.20;;
6354;SDS011;3210;48.708;9.030;2022-08-19T06:29:40;31.73;;;24.23;;
6354;SDS011;3210;48.708;9.030;2022-08-19T06:32:08;35.60;;;25.77;;
6354;SDS011;3210;48.708;9.030;2022-08-19T06:34:35;35.83;;;25.27;;
6354;SDS011;3210;48.708;9.030;2022-08-19T06:37:03;35.50;;;25.33;;
6354;SDS011;3210;48.708;9.030;2022-08-19T06:39:31;32.60;;;24.60;;
6354;SDS011;3210;48.708;9.030;2022-08-19T06:42:00;31.97;;;24.10;;
6354;SDS011;3210;48.708;9.030;2022-08-19T06:44:33;31.97;;;22.90;;
6354;SDS011;3210;48.708;9.030;2022-08-19T06:47:01;30.60;;;24.33;;
6354;SDS011;3210;48.708;9.030;2022-08-19T06:49:29;33.97;;;25.20;;
6354;SDS011;3210;48.708;9.030;2022-08-19T06:51:57;30.33;;;23.13;;
6354;SDS011;3210;48.708;9.030;2022-08-19T06:54:24;35.20;;;24.47;;
6354;SDS011;3210;48.708;9.030;2022-08-19T06:56:53;31.93;;;21.43;;
6354;SDS011;3210;48.708;9.030;2022-08-19T06:59:21;28.80;;;23.27;;
6354;SDS011;3210;48.708;9.030;2022-08-19T07:01:54;32.10;;;23.07;;
6354;SDS011;3210;48.708;9.030;2022-08-19T07:04:23;33.63;;;25.90;;
6354;SDS011;3210;48.708;9.030;2022-08-19T07:06:57;39.27;;;23.10;;
6354;SDS011;3210;48.708;9.030;2022-08-19T07:09:25;32.67;;;23.03;;
6354;SDS011;3210;48.708;9.030;2022-08-19T07:11:53;32.93;;;24.37;;
6354;SDS011;3210;48.708;9.030;2022-08-19T07:14:22;31.80;;;22.27;;
6354;SDS011;3210;48.708;9.030;2022-08-19T07:16:51;43.40;;;24.03;;
6354;SDS011;3210;48.708;9.030;2022-08-19T07:19:22;26.40;;;20.53;;
6354;SDS011;3210;48.708;9.030;2022-08-19T07:21:51;29.43;;;23.33;;
6354;SDS011;3210;48.708;9.030;2022-08-19T07:24:19;30.57;;;21.43;;
6354;SDS011;3210;48.708;9.030;2022-08-19T07:26:49;28.73;;;20.90;;
6354;SDS011;3210;48.708;9.030;2022-08-19T07:29:17;26.97;;;21.70;;
6354;SDS011;3210;48.708;9.030;2022-08-19T07:31:47;26.30;;;19.97;;
6354;SDS011;3210;48.708;9.030;2022-08-19T07:34:16;26.50;;;19.50;;
6354;SDS011;3210;48.708;9.030;2022-08-19T07:36:43;22.67;;;17.67;;
6354;SDS011;3210;48.708;9.030;2022-08-19T07:39:12;24.73;;;20.23;;
6354;SDS011;3210;48.708;9.030;2022-08-19T07:41:42;27.93;;;20.20;;
6354;SDS011;3210;48.708;9.030;2022-08-19T07:44:09;24.10;;;18.70;;
6354;SDS011;3210;48.708;9.030;2022-08-19T07:46:39;27.20;;;20.23;;
6354;SDS011;3210;48.708;9.030;2022-08-19T07:49:09;24.93;;;19.40;;
6354;SDS011;3210;48.708;9.030;2022-08-19T07:51:45;32.47;;;20.73;;
6354;SDS011;3210;48.708;9.030;2022-08-19T07:54:14;31.23;;;20.60;;
6354;SDS011;3210;48.708;9.030;2022-08-19T07:56:41;25.47;;;18.63;;
6354;SDS011;3210;48.708;9.030;2022-08-19T07:59:08;23.30;;;18.77;;
6354;SDS011;3210;48.708;9.030;2022-08-19T08:01:35;25.90;;;20.17;;
6354;SDS011;3210;48.708;9.030;2022-08-19T08:04:05;25.30;;;19.23;;
6354;SDS011;3210;48.708;9.030;2022-08-19T08:06:52;27.60;;;19.50;;
6354;SDS011;3210;48.708;9.030;2022-08-19T08:09:38;28.80;;;20.50;;
6354;SDS011;3210;48.708;9.030;2022-08-19T08:12:07;27.77;;;20.43;;
6354;SDS011;3210;48.708;9.030;2022-08-19T08:14:37;26.43;;;19.60;;
6354;SDS011;3210;48.708;9.030;2022-08-19T08:17:07;30.00;;;20.10;;
6354;SDS011;3210;48.708;9.030;2022-08-19T08:19:35;29.73;;;20.93;;
6354;SDS011;3210;48.708;9.030;2022-08-19T08:22:04;29.47;;;20.80;;
6354;SDS011;3210;48.708;9.030;2022-08-19T08:24:32;31.20;;;20.77;;
6354;SDS011;3210;48.708;9.030;2022-08-19T08:27:01;25.37;;;20.50;;
6354;SDS011;3210;48.708;9.030;2022-08-19T08:29:29;24.83;;;20.20;;
6354;SDS011;3210;48.708;9.030;2022-08-19T08:31:58;26.37;;;19.73;;
6354;SDS011;3210;48.708;9.030;2022-08-19T08:34:24;27.73;;;20.17;;
6354;SDS011;3210;48.708;9.030;2022-08-19T08:36:51;34.73;;;21.57;;
6354;SDS011;3210;48.708;9.030;2022-08-19T08:39:20;28.57;;;20.43;;
6354;SDS011;3210;48.708;9.030;2022-08-19T08:41:50;25.93;;;20.40;;
6354;SDS011;3210;48.708;9.030;2022-08-19T08:44:22;21.10;;;17.93;;
6354;SDS011;3210;48.708;9.030;2022-08-19T08:46:55;27.67;;;19.80;;
6354;SDS011;3210;48.708;9.030;2022-08-19T08:49:26;27.83;;;19.87;;
6354;SDS011;3210;48.708;9.030;2022-08-19T08:52:00;28.97;;;19.83;;
6354;SDS011;3210;48.708;9.030;2022-08-19T08:54:32;24.50;;;20.07;;
6354;SDS011;3210;48.708;9.030;2022-08-19T08:57:02;27.00;;;19.77;;
6354;SDS011;3210;48.708;9.030;2022-08-19T08:59:34;26.60;;;18.00;;
6354;SDS011;3210;48.708;9.030;2022-08-19T09:02:02;27.77;;;20.70;;
6354;SDS011;3210;48.708;9.030;2022-08-19T09:04:30;24.23;;;19.60;;
6354;SDS011;3210;48.708;9.030;2022-08-19T09:06:59;30.87;;;19.60;;
6354;SDS011;3210;48.708;9.030;2022-08-19T09:09:40;22.47;;;18.97;;
6354;SDS011;3210;48.708;9.030;2022-08-19T09:12:11;25.53;;;18.80;;
6354;SDS011;3210;48.708;9.030;2022-08-19T09:14:45;26.73;;;19.17;;
6354;SDS011;3210;48.708;9.030;2022-08-19T09:17:16;24.30;;;19.23;;
6354;SDS011;3210;48.708;9.030;2022-08-19T09:19:50;19.67;;;16.63;;
6354;SDS011;3210;48.708;9.030;2022-08-19T09:22:18;24.27;;;17.07;;
6354;SDS011;3210;48.708;9.030;2022-08-19T09:24:48;22.97;;;18.80;;
6354;SDS011;3210;48.708;9.030;2022-08-19T09:27:15;22.50;;;18.80;;
6354;SDS011;3210;48.708;9.030;2022-08-19T09:29:42;26.53;;;18.07;;
6354;SDS011;3210;48.708;9.030;2022-08-19T09:32:09;21.03;;;17.53;;
6354;SDS011;3210;48.708;9.030;2022-08-19T09:34:35;25.93;;;17.67;;
6354;SDS011;3210;48.708;9.030;2022-08-19T09:37:02;30.10;;;18.83;;
6354;SDS011;3210;48.708;9.030;2022-08-19T09:39:30;21.17;;;16.47;;
6354;SDS011;3210;48.708;9.030;2022-08-19T09:41:58;20.73;;;16.73;;
6354;SDS011;3210;48.708;9.030;2022-08-19T09:44:25;21.70;;;17.30;;
6354;SDS011;3210;48.708;9.030;2022-08-19T09:46:52;29.20;;;18.17;;
6354;SDS011;3210;48.708;9.030;2022-08-19T09:49:19;21.20;;;15.40;;
6354;SDS011;3210;48.708;9.030;2022-08-19T09:51:48;22.53;;;15.63;;
6354;SDS011;3210;48.708;9.030;2022-08-19T09:54:15;20.03;;;16.00;;
6354;SDS011;3210;48.708;9.030;2022-08-19T09:56:42;26.20;;;17.60;;
6354;SDS011;3210;48.708;9.030;2022-08-19T09:59:10;21.17;;;17.80;;
6354;SDS011;3210;48.708;9.030;2022-08-19T10:01:38;20.13;;;16.00;;
6354;SDS011;3210;48.708;9.030;2022-08-19T10:04:05;20.17;;;17.20;;
6354;SDS011;3210;48.708;9.030;2022-08-19T10:06:34;17.83;;;16.03;;
6354;SDS011;3210;48.708;9.030;2022-08-19T10:09:03;20.23;;;15.17;;
6354;SDS011;3210;48.708;9.030;2022-08-19T10:11:31;26.30;;;15.80;;
6354;SDS011;3210;48.708;9.030;2022-08-19T10:13:58;20.00;;;14.97;;
6354;SDS011;3210;48.708;9.030;2022-08-19T10:16:27;20.33;;;15.70;;
6354;SDS011;3210;48.708;9.030;2022-08-19T10:18:54;21.53;;;14.90;;
6354;SDS011;3210;48.708;9.030;2022-08-19T10:21:22;25.03;;;15.43;;
6354;SDS011;3210;48.708;9.030;2022-08-19T10:23:51;20.13;;;14.90;;
6354;SDS011;3210;48.708;9.030;2022-08-19T10:26:21;18.63;;;14.53;;
6354;SDS011;3210;48.708;9.030;2022-08-19T10:28:49;19.93;;;13.43;;
6354;SDS011;3210;48.708;9.030;2022-08-19T10:31:16;14.90;;;12.60;;
6354;SDS011;3210;48.708;9.030;2022-08-19T10:33:46;20.50;;;13.83;;
6354;SDS011;3210;48.708;9.030;2022-08-19T10:36:15;26.23;;;12.87;;
6354;SDS011;3210;48.708;9.030;2022-08-19T10:38:43;16.03;;;12.90;;
6354;SDS011;3210;48.708;9.030;2022-08-19T10:41:11;22.90;;;13.13;;
6354;SDS011;3210;48.708;9.030;2022-08-19T10:43:59;19.47;;;12.10;;
6354;SDS011;3210;48.708;9.030;2022-08-19T10:46:29;12.80;;;10.80;;
6354;SDS011;3210;48.708;9.030;2022-08-19T10:48:57;13.73;;;11.83;;
6354;SDS011;3210;48.708;9.030;2022-08-19T10:51:24;20.43;;;11.33;;
6354;SDS011;3210;48.708;9.030;2022-08-19T10:54:09;13.77;;;10.80;;
6354;SDS011;3210;48.708;9.030;2022-08-19T10:56:36;14.37;;;10.63;;
6354;SDS011;3210;48.708;9.030;2022-08-19T10:59:19;14.27;;;9.03;;
6354;SDS011;3210;48.708;9.030;2022-08-19T11:01:47;10.77;;;9.67;;
6354;SDS011;3210;48.708;9.030;2022-08-19T11:04:15;11.77;;;8.60;;
6354;SDS011;3210;48.708;9.030;2022-08-19T11:06:43;14.70;;;9.93;;
6354;SDS011;3210;48.708;9.030;2022-08-19T11:09:12;12.43;;;10.80;;
6354;SDS011;3210;48.708;9.030;2022-08-19T11:11:40;17.63;;;10.20;;
6354;SDS011;3210;48.708;9.030;2022-08-19T11:14:07;15.57;;;10.07;;
6354;SDS011;3210;48.708;9.030;2022-08-19T11:16:36;12.90;;;11.17;;
6354;SDS011;3210;48.708;9.030;2022-08-19T11:19:04;19.37;;;12.07;;
6354;SDS011;3210;48.708;9.030;2022-08-19T11:21:32;15.07;;;10.37;;
6354;SDS011;3210;48.708;9.030;2022-08-19T11:24:03;11.27;;;10.10;;
6354;SDS011;3210;48.708;9.030;2022-08-19T11:26:32;18.03;;;11.03;;
6354;SDS011;3210;48.708;9.030;2022-08-19T11:29:00;19.70;;;10.63;;
6354;SDS011;3210;48.708;9.030;2022-08-19T11:31:28;15.60;;;10.20;;
6354;SDS011;3210;48.708;9.030;2022-08-19T11:33:58;16.43;;;10.10;;
6354;SDS011;3210;48.708;9.030;2022-08-19T11:36:26;12.77;;;9.40;;
6354;SDS011;3210;48.708;9.030;2022-08-19T11:38:54;10.17;;;9.07;;
6354;SDS011;3210;48.708;9.030;2022-08-19T11:41:21;12.23;;;10.30;;
6354;SDS011;3210;48.708;9.030;2022-08-19T11:43:49;11.17;;;10.00;;
6354;SDS011;3210;48.708;9.030;2022-08-19T11:46:18;12.87;;;9.30;;
6354;SDS011;3210;48.708;9.030;2022-08-19T11:48:45;11.80;;;9.27;;
6354;SDS011;3210;48.708;9.030;2022-08-19T11:51:15;15.37;;;8.30;;
6354;SDS011;3210;48.708;9.030;2022-08-19T11:53:43;12.93;;;9.43;;
6354;SDS011;3210;48.708;9.030;2022-08-19T11:56:10;12.13;;;8.43;;
6354;SDS011;3210;48.708;9.030;2022-08-19T11:58:38;12.90;;;8.33;;
6354;SDS011;3210;48.708;9.030;2022-08-19T12:01:07;12.10;;;9.40;;
6354;SDS011;3210;48.708;9.030;2022-08-19T12:03:34;9.40;;;8.43;;
6354;SDS011;3210;48.708;9.030;2022-08-19T12:06:03;10.70;;;7.70;;
6354;SDS011;3210;48.708;9.030;2022-08-19T12:08:32;8.57;;;7.50;;
6354;SDS011;3210;48.708;9.030;2022-08-19T12:10:59;10.30;;;7.57;;
6354;SDS011;3210;48.708;9.030;2022-08-19T12:13:26;11.60;;;7.40;;
6354;SDS011;3210;48.708;9.030;2022-08-19T12:15:53;8.13;;;7.20;;
6354;SDS011;3210;48.708;9.030;2022-08-19T12:18:20;10.80;;;7.20;;
6354;SDS011;3210;48.708;9.030;2022-08-19T12:20:47;8.87;;;7.10;;
6354;SDS011;3210;48.708;9.030;2022-08-19T12:23:16;9.33;;;5.80;;
6354;SDS011;3210;48.708;9.030;2022-08-19T12:25:46;10.53;;;6.70;;
6354;SDS011;3210;48.708;9.030;2022-08-19T12:28:16;19.93;;;6.43;;
6354;SDS011;3210;48.708;9.030;2022-08-19T12:30:43;10.30;;;7.33;;
6354;SDS011;3210;48.708;9.030;2022-08-19T12:33:10;6.77;;;6.17;;
6354;SDS011;3210;48.708;9.030;2022-08-19T12:35:39;7.83;;;6.57;;
6354;SDS011;3210;48.708;9.030;2022-08-19T12:38:06;8.20;;;7.00;;
6354;SDS011;3210;48.708;9.030;2022-08-19T12:40:33;7.27;;;6.53;;
6354;SDS011;3210;48.708;9.030;2022-08-19T12:43:01;7.03;;;6.33;;
6354;SDS011;3210;48.708;9.030;2022-08-19T12:45:28;7.07;;;6.13;;
6354;SDS011;3210;48.708;9.030;2022-08-19T12:47:54;7.23;;;6.53;;
6354;SDS011;3210;48.708;9.030;2022-08-19T12:50:21;8.33;;;6.57;;
6354;SDS011;3210;48.708;9.030;2022-08-19T12:52:48;8.57;;;5.87;;
6354;SDS011;3210;48.708;9.030;2022-08-19T12:55:15;10.73;;;6.50;;
6354;SDS011;3210;48.708;9.030;2022-08-19T12:57:43;6.70;;;6.00;;
6354;SDS011;3210;48.708;9.030;2022-08-19T13:00:13;8.37;;;6.00;;
6354;SDS011;3210;48.708;9.030;2022-08-19T13:02:43;5.77;;;5.27;;
6354;SDS011;3210;48.708;9.030;2022-08-19T13:05:12;5.10;;;4.60;;
6354;SDS011;3210;48.708;9.030;2022-08-19T13:07:41;6.67;;;6.10;;
6354;SDS011;3210;48.708;9.030;2022-08-19T13:10:10;10.33;;;5.00;;
6354;SDS011;3210;48.708;9.030;2022-08-19T13:12:40;6.67;;;6.10;;
6354;SDS011;3210;48.708;9.030;2022-08-19T13:15:07;11.13;;;6.03;;
6354;SDS011;3210;48.708;9.030;2022-08-19T13:17:37;9.90;;;6.00;;
6354;SDS011;3210;48.708;9.030;2022-08-19T13:20:05;6.47;;;5.87;;
6354;SDS011;3210;48.708;9.030;2022-08-19T13:22:33;6.43;;;5.80;;
6354;SDS011;3210;48.708;9.030;2022-08-19T13:25:01;7.33;;;5.80;;
6354;SDS011;3210;48.708;9.030;2022-08-19T13:27:28;7.83;;;6.47;;
6354;SDS011;3210;48.708;9.030;2022-08-19T13:29:55;6.83;;;5.77;;
6354;SDS011;3210;48.708;9.030;2022-08-19T13:32:40;6.90;;;6.07;;
6354;SDS011;3210;48.708;9.030;2022-08-19T13:35:37;6.50;;;5.90;;
6354;SDS011;3210;48.708;9.030;2022-08-19T13:38:04;6.10;;;5.50;;
6354;SDS011;3210;48.708;9.030;2022-08-19T13:40:32;6.93;;;5.70;;
6354;SDS011;3210;48.708;9.030;2022-08-19T13:43:00;5.90;;;5.30;;
6354;SDS011;3210;48.708;9.030;2022-08-19T13:45:28;10.80;;;5.70;;
6354;SDS011;3210;48.708;9.030;2022-08-19T13:47:59;5.50;;;4.90;;
6354;SDS011;3210;48.708;9.030;2022-08-19T13:50:31;7.37;;;6.27;;
6354;SDS011;3210;48.708;9.030;2022-08-19T13:52:59;6.37;;;5.77;;
6354;SDS011;3210;48.708;9.030;2022-08-19T13:55:27;10.67;;;6.60;;
6354;SDS011;3210;48.708;9.030;2022-08-19T13:57:56;7.70;;;6.13;;
6354;SDS011;3210;48.708;9.030;2022-08-19T14:00:24;12.10;;;8.07;;
6354;SDS011;3210;48.708;9.030;2022-08-19T14:02:54;7.97;;;7.27;;
6354;SDS011;3210;48.708;9.030;2022-08-19T14:05:24;8.10;;;7.33;;
6354;SDS011;3210;48.708;9.030;2022-08-19T14:07:52;10.77;;;7.30;;
6354;SDS011;3210;48.708;9.030;2022-08-19T14:10:19;9.00;;;7.93;;
6354;SDS011;3210;48.708;9.030;2022-08-19T14:12:48;14.53;;;7.53;;
6354;SDS011;3210;48.708;9.030;2022-08-19T14:15:15;9.17;;;7.63;;
6354;SDS011;3210;48.708;9.030;2022-08-19T14:17:43;12.70;;;6.80;;
6354;SDS011;3210;48.708;9.030;2022-08-19T14:20:11;7.73;;;7.03;;
6354;SDS011;3210;48.708;9.030;2022-08-19T14:22:42;9.80;;;7.13;;
6354;SDS011;3210;48.708;9.030;2022-08-19T14:25:11;7.67;;;6.70;;
6354;SDS011;3210;48.708;9.030;2022-08-19T14:27:40;12.63;;;7.23;;
6354;SDS011;3210;48.708;9.030;2022-08-19T14:30:08;8.57;;;7.87;;
6354;SDS011;3210;48.708;9.030;2022-08-19T14:32:36;17.63;;;7.80;;
6354;SDS011;3210;48.708;9.030;2022-08-19T14:35:04;11.53;;;9.90;;
6354;SDS011;3210;48.708;9.030;2022-08-19T14:37:32;14.53;;;13.07;;
6354;SDS011;3210;48.708;9.030;2022-08-19T14:40:01;13.50;;;10.70;;
6354;SDS011;3210;48.708;9.030;2022-08-19T14:42:29;12.13;;;10.93;;
6354;SDS011;3210;48.708;9.030;2022-08-19T14:44:57;15.60;;;14.03;;
6354;SDS011;3210;48.708;9.030;2022-08-19T14:47:25;16.23;;;14.30;;
6354;SDS011;3210;48.708;9.030;2022-08-19T14:49:52;19.17;;;14.10;;
6354;SDS011;3210;48.708;9.030;2022-08-19T14:52:19;16.30;;;13.33;;
6354;SDS011;3210;48.708;9.030;2022-08-19T14:54:46;21.70;;;13.93;;
6354;SDS011;3210;48.708;9.030;2022-08-19T14:57:14;17.07;;;14.20;;
6354;SDS011;3210;48.708;9.030;2022-08-19T14:59:41;14.73;;;13.23;;
6354;SDS011;3210;48.708;9.030;2022-08-19T15:02:08;16.93;;;12.67;;